Terminal Aerodrome Forecast
Issued by NWS

Home | Current Version | Previous Version | Text Only | Print | Product List | Glossary Off
Versions: 1 2 3 4 5 6 7 8 9 10 11 12 13 14 15 16 17 18 19

970
FTUS43 KPAH 221353 AAA
TAFCGI
TAF AMD
KCGI 221353Z 2214/2312 02013KT 5SM TSRA BR OVC012CB
     FM221600 02014G23KT 6SM -SHRA BR OVC013
     FM230000 01011KT P6SM VCSH OVC015
     FM230600 01011KT P6SM BKN025
     FM231000 01010KT P6SM SCT035=

USA.gov is the U.S. government's official web portal to all federal, state and local government web resources and services.